createdAt,value
2023-01-29T00:02:42.734Z,7.03
2023-01-29T00:07:44.468Z,6.88
2023-01-29T00:12:46.175Z,7.18
2023-01-29T00:17:47.924Z,7.90
2023-01-29T00:22:49.768Z,8.10
2023-01-29T00:27:51.909Z,8.25
2023-01-29T00:32:54.026Z,8.38
2023-01-29T00:37:56.428Z,8.60
2023-01-29T00:43:16.821Z,9.70
2023-01-29T00:48:18.621Z,9.55
2023-01-29T00:53:20.332Z,10.10
2023-01-29T00:58:22.450Z,9.48
2023-01-29T01:03:24.307Z,9.55
2023-01-29T01:08:44.789Z,9.45
2023-01-29T01:13:46.762Z,9.57
2023-01-29T01:18:48.504Z,10.35
2023-01-29T01:23:51.997Z,9.10
2023-01-29T01:28:54.241Z,9.85
2023-01-29T01:33:56.079Z,9.68
2023-01-29T01:38:58.349Z,10.10
2023-01-29T01:44:02.562Z,9.85
2023-01-29T01:49:09.705Z,10.02
2023-01-29T01:54:23.784Z,10.32
2023-01-29T01:59:25.693Z,9.95
2023-01-29T02:04:45.900Z,9.48
2023-01-29T02:10:05.958Z,10.25
2023-01-29T02:15:08.205Z,10.23
2023-01-29T02:20:27.285Z,9.85
2023-01-29T02:25:53.569Z,9.25
2023-01-29T02:31:06.921Z,9.43
2023-01-29T02:36:53.540Z,9.55
2023-01-29T02:42:16.650Z,9.50
2023-01-29T02:47:30.682Z,10.18
2023-01-29T02:52:44.555Z,10.05
2023-01-29T02:57:48.751Z,9.85
2023-01-29T03:03:09.293Z,10.68
2023-01-29T03:08:16.193Z,9.73
2023-01-29T03:13:22.491Z,8.93
2023-01-29T03:18:30.604Z,9.60
2023-01-29T03:23:54.631Z,9.80
2023-01-29T03:29:15.518Z,9.30
2023-01-29T03:34:28.563Z,9.13
2023-01-29T03:39:31.080Z,9.02
2023-01-29T03:44:49.075Z,10.07
2023-01-29T03:50:23.921Z,8.65
2023-01-29T03:55:40.280Z,8.07
2023-01-29T04:00:52.974Z,8.55
2023-01-29T04:06:10.587Z,8.63
2023-01-29T04:11:22.425Z,7.97
2023-01-29T04:16:33.243Z,8.85
2023-01-29T04:21:57.448Z,8.05
2023-01-29T04:27:10.729Z,8.20
2023-01-29T04:32:30.621Z,8.48
2023-01-29T04:37:54.442Z,7.70
2023-01-29T04:43:08.116Z,7.88
2023-01-29T04:48:22.150Z,7.90
2023-01-29T04:53:37.046Z,7.65
2023-01-29T04:58:47.135Z,7.65
2023-01-29T05:03:51.516Z,7.30
2023-01-29T05:08:55.484Z,6.55
2023-01-29T05:13:57.737Z,6.82
2023-01-29T05:18:59.464Z,6.57
2023-01-29T05:24:20.462Z,6.00
2023-01-29T05:29:22.834Z,5.55
2023-01-29T05:34:24.619Z,4.82
2023-01-29T05:39:26.431Z,5.35
2023-01-29T05:44:28.202Z,4.72
2023-01-29T05:49:30.158Z,4.95
2023-01-29T05:54:31.886Z,4.28
2023-01-29T05:59:33.678Z,4.43
2023-01-29T06:04:35.552Z,4.25
2023-01-29T06:09:37.293Z,4.40
2023-01-29T06:14:39.090Z,4.53
2023-01-29T06:19:40.853Z,4.30
2023-01-29T06:24:42.638Z,4.40
2023-01-29T06:29:44.350Z,4.55
2023-01-29T06:34:48.621Z,4.78
2023-01-29T06:39:51.425Z,6.50
2023-01-29T06:44:56.505Z,9.95
2023-01-29T06:49:58.269Z,14.70
2023-01-29T06:55:00.013Z,5.35
2023-01-29T07:00:01.782Z,4.25
2023-01-29T07:05:03.739Z,4.53
2023-01-29T07:10:06.089Z,4.18
2023-01-29T07:15:08.494Z,4.28
2023-01-29T07:20:11.002Z,4.10
2023-01-29T07:25:12.820Z,4.25
2023-01-29T07:30:15.172Z,4.25
2023-01-29T07:35:17.256Z,4.15
2023-01-29T07:40:19.222Z,14.88
2023-01-29T07:45:20.949Z,4.60
2023-01-29T07:50:24.581Z,4.88
2023-01-29T07:55:26.470Z,4.82
2023-01-29T08:00:29.212Z,5.40
2023-01-29T08:05:30.960Z,4.00
2023-01-29T08:10:33.027Z,4.80
2023-01-29T08:15:37.175Z,3.72
2023-01-29T08:20:40.576Z,3.65
2023-01-29T08:25:42.405Z,4.00
2023-01-29T08:30:44.564Z,4.20
2023-01-29T08:35:50.828Z,3.55
2023-01-29T08:40:52.577Z,3.60
2023-01-29T08:45:54.390Z,3.60
2023-01-29T08:51:03.022Z,3.22
2023-01-29T08:56:05.118Z,3.58
2023-01-29T09:01:11.974Z,3.45
2023-01-29T09:06:14.872Z,3.35
2023-01-29T09:11:16.632Z,3.90
2023-01-29T09:16:18.460Z,3.33
2023-01-29T09:21:20.200Z,3.05
2023-01-29T09:26:21.982Z,3.47
2023-01-29T09:31:23.868Z,3.03
2023-01-29T09:36:25.804Z,3.25
2023-01-29T09:41:58.242Z,4.82
2023-01-29T09:47:04.153Z,5.93
2023-01-29T09:52:26.028Z,5.38
2023-01-29T09:57:44.980Z,5.47
2023-01-29T10:03:10.993Z,3.40
2023-01-29T10:08:32.060Z,3.90
2023-01-29T10:14:16.930Z,3.58
2023-01-29T10:19:56.331Z,3.10
2023-01-29T10:25:02.940Z,3.45
2023-01-29T10:30:11.695Z,3.43
2023-01-29T10:35:18.631Z,3.55
2023-01-29T10:40:21.674Z,4.18
2023-01-29T10:46:03.989Z,4.00
2023-01-29T10:51:32.433Z,3.90
2023-01-29T10:57:00.237Z,4.80
2023-01-29T11:02:03.337Z,4.78
2023-01-29T11:07:05.254Z,4.72
2023-01-29T11:12:32.106Z,3.97
2023-01-29T11:17:33.856Z,4.70
2023-01-29T11:22:35.618Z,4.45
2023-01-29T11:27:46.062Z,4.70
2023-01-29T11:32:58.873Z,4.40
2023-01-29T11:38:21.398Z,4.70
2023-01-29T11:43:31.086Z,4.97
2023-01-29T11:48:44.107Z,4.72
2023-01-29T11:53:52.331Z,3.92
2023-01-29T11:58:55.817Z,4.90
2023-01-29T12:03:57.704Z,4.95
2023-01-29T12:09:02.377Z,4.90
2023-01-29T12:14:21.974Z,5.50
2023-01-29T12:19:34.063Z,4.70
2023-01-29T12:24:46.374Z,6.40
2023-01-29T12:30:06.244Z,5.88
2023-01-29T12:35:18.118Z,5.72
2023-01-29T12:40:24.993Z,5.78
2023-01-29T12:45:28.176Z,5.50
2023-01-29T12:50:34.786Z,6.40
2023-01-29T12:55:44.706Z,6.97
2023-01-29T13:00:50.810Z,25.98
2023-01-29T13:05:55.704Z,7.28
2023-01-29T13:11:00.820Z,10.48
2023-01-29T13:16:07.431Z,8.18
2023-01-29T13:21:16.094Z,7.17
2023-01-29T13:26:20.223Z,9.68
2023-01-29T13:31:33.275Z,19.98
2023-01-29T13:36:37.700Z,8.73
2023-01-29T13:41:42.463Z,7.63
2023-01-29T13:46:50.008Z,7.63
2023-01-29T13:56:59.265Z,8.00
2023-01-29T14:07:39.294Z,7.50
2023-01-29T14:12:42.415Z,8.35
2023-01-29T14:17:59.687Z,7.85
2023-01-29T14:23:04.141Z,8.93
2023-01-29T14:28:16.335Z,7.53
2023-01-29T14:33:45.162Z,8.05
2023-01-29T14:38:51.083Z,9.32
2023-01-29T14:44:32.803Z,7.88
2023-01-29T14:49:54.294Z,7.82
2023-01-29T14:55:01.749Z,8.35
2023-01-29T15:00:07.169Z,7.47
2023-01-29T15:05:17.298Z,7.07
2023-01-29T15:10:23.325Z,8.63
2023-01-29T15:15:42.540Z,7.75
2023-01-29T15:20:44.567Z,7.95
2023-01-29T15:25:52.263Z,7.50
2023-01-29T15:30:56.144Z,8.13
2023-01-29T15:36:08.725Z,8.23
2023-01-29T15:41:19.133Z,8.38
2023-01-29T15:46:26.608Z,8.20
2023-01-29T15:51:28.971Z,7.90
2023-01-29T15:56:36.074Z,8.27
2023-01-29T16:01:37.864Z,8.40
2023-01-29T16:06:41.573Z,8.48
2023-01-29T16:11:43.934Z,8.30
2023-01-29T16:16:48.410Z,7.93
2023-01-29T16:22:10.477Z,8.70
2023-01-29T16:27:14.828Z,12.88
2023-01-29T16:32:18.151Z,9.13
2023-01-29T16:37:25.187Z,9.32
2023-01-29T16:42:29.174Z,9.73
2023-01-29T16:47:41.139Z,11.02
2023-01-29T16:53:00.742Z,14.40
2023-01-29T16:58:24.692Z,9.98
2023-01-29T17:03:28.720Z,8.07
2023-01-29T17:08:33.221Z,8.95
2023-01-29T17:13:42.592Z,7.90
2023-01-29T17:18:44.324Z,8.77
2023-01-29T17:23:46.174Z,8.43
2023-01-29T17:28:51.221Z,7.93
2023-01-29T17:33:53.016Z,10.40
2023-01-29T17:38:54.759Z,10.18
2023-01-29T17:43:56.630Z,10.57
2023-01-29T17:48:58.394Z,9.98
2023-01-29T17:54:00.129Z,9.48
2023-01-29T17:59:01.992Z,9.90
2023-01-29T18:04:04.077Z,8.52
2023-01-29T18:09:06.074Z,9.20
2023-01-29T18:14:13.738Z,9.45
2023-01-29T18:19:23.196Z,10.15
2023-01-29T18:24:26.536Z,11.02
2023-01-29T18:29:30.293Z,9.90
2023-01-29T18:34:32.163Z,10.30
2023-01-29T18:39:33.877Z,10.38
2023-01-29T18:44:35.661Z,10.38
2023-01-29T18:49:39.116Z,10.80
2023-01-29T18:54:40.881Z,10.70
2023-01-29T18:59:42.697Z,11.23
2023-01-29T19:04:46.415Z,17.25
2023-01-29T19:09:48.433Z,14.38
2023-01-29T19:14:50.208Z,14.73
2023-01-29T19:19:52.057Z,10.30
2023-01-29T19:24:54.269Z,11.02
2023-01-29T19:29:57.869Z,13.10
2023-01-29T19:34:59.610Z,12.13
2023-01-29T19:40:01.563Z,13.73
2023-01-29T19:45:04.986Z,11.98
2023-01-29T19:50:08.355Z,11.15
2023-01-29T19:55:10.245Z,12.35
2023-01-29T20:00:12.675Z,12.40
2023-01-29T20:05:18.331Z,11.80
2023-01-29T20:10:21.262Z,12.07
2023-01-29T20:15:23.002Z,12.57
2023-01-29T20:20:27.686Z,12.60
2023-01-29T20:25:35.577Z,14.07
2023-01-29T20:30:38.284Z,12.75
2023-01-29T20:35:40.274Z,12.25
2023-01-29T20:40:41.991Z,12.40
2023-01-29T20:45:43.759Z,12.43
2023-01-29T20:50:45.690Z,11.80
2023-01-29T20:55:47.453Z,12.30
2023-01-29T21:00:49.548Z,12.10
2023-01-29T21:05:52.189Z,13.52
2023-01-29T21:10:54.158Z,12.55
2023-01-29T21:15:55.890Z,11.27
2023-01-29T21:20:57.685Z,11.90
2023-01-29T21:26:04.841Z,12.30
2023-01-29T21:31:10.115Z,11.63
2023-01-29T21:36:12.335Z,12.30
2023-01-29T21:41:14.183Z,16.17
2023-01-29T21:46:16.181Z,31.08
2023-01-29T21:51:18.963Z,12.40
2023-01-29T21:56:20.912Z,15.30
2023-01-29T22:01:37.882Z,12.38
2023-01-29T22:11:42.110Z,11.73
2023-01-29T22:16:45.262Z,12.10
2023-01-29T22:21:47.082Z,12.40
2023-01-29T22:26:49.619Z,13.40
2023-01-29T22:31:51.674Z,13.20
2023-01-29T22:36:53.777Z,12.82
2023-01-29T22:41:55.502Z,13.00
2023-01-29T22:46:57.210Z,12.27
2023-01-29T22:52:11.028Z,13.00
2023-01-29T22:57:14.846Z,14.30
2023-01-29T23:02:16.590Z,14.02
2023-01-29T23:07:18.337Z,13.32
2023-01-29T23:12:20.118Z,14.00
2023-01-29T23:17:22.010Z,13.30
2023-01-29T23:22:23.928Z,13.98
2023-01-29T23:27:25.714Z,13.77
2023-01-29T23:32:27.438Z,13.77
2023-01-29T23:37:29.205Z,13.95
2023-01-29T23:42:30.977Z,14.50
2023-01-29T23:47:32.696Z,15.43
2023-01-29T23:52:34.439Z,15.15
2023-01-29T23:57:36.277Z,15.88
